Tanamera — DH4571 — position and weather

sailwx.info

Track history (hours):
 
Tides and Currents Weather Stations Pressure Air Temp Water Temp Dewpoint Dewpoint Depression Visibility Wind Speed Wind Dir Waves Ship Positions

Tanamera

Last reported at 2017-Sep-13 13:19 UTC. Time now 2017-Sep-19 18:48 UTC.
Position N 39°20' W 076°11'.

Length 10 m.

Type: Sailing vessel. MMSI: 211598890.

Date/timePositionNaut miles runAvg speedWind from/ knotsBaromVisibWave heightAir tempDewpointWater temp
2017-Sep-13 13:19N 39°20' W 076°11'3 6.3
2017-Sep-13 12:54N 39°22' W 076°09'2 6.3
2017-Sep-13 12:31N 39°23' W 076°06'3 6.4
2017-Sep-13 12:00N 39°25' W 076°02'3 6.5
2017-Sep-13 11:31N 39°27' W 075°60'3 6.4
2017-Sep-13 11:01N 39°29' W 075°57'3 6.2
2017-Sep-13 10:29N 39°31' W 075°53'3 6.0
2017-Sep-13 10:01N 39°32' W 075°50'3 5.6
2017-Sep-13 09:31N 39°32' W 075°46'3 5.2
2017-Sep-13 09:01N 39°33' W 075°43'2 4.7
2017-Sep-13 08:30N 39°33' W 075°40'2 4.4
2017-Sep-13 08:00N 39°33' W 075°37'2 4.1
2017-Sep-13 07:30N 39°34' W 075°34'2 4.8
2017-Sep-13 07:01N 39°31' W 075°33'3 6.5
2017-Sep-13 06:30N 39°28' W 075°33'3 6.3
2017-Sep-13 06:00N 39°25' W 075°31'3 5.7
2017-Sep-13 05:31N 39°23' W 075°29'3 5.4
2017-Sep-13 05:00N 39°21' W 075°26'3 5.2
2017-Sep-13 04:31N 39°19' W 075°24'3 5.1
2017-Sep-13 04:01N 39°17' W 075°22'2 4.9
2017-Sep-13 03:31N 39°16' W 075°20'2 4.3
2017-Sep-13 02:59N 39°14' W 075°18'2 3.8
2017-Sep-13 02:31N 39°12' W 075°17'2 3.6
2017-Sep-13 02:01N 39°11' W 075°16'2 4.4
2017-Sep-13 01:30N 39°09' W 075°14'2 4.8
2017-Sep-13 01:00N 39°07' W 075°12'2 4.5
2017-Sep-13 00:31N 39°05' W 075°11'2 4.3
2017-Sep-13 00:00N 39°03' W 075°09'2 4.4
2017-Sep-12 23:29N 39°01' W 075°07'2 4.2
2017-Sep-12 22:56N 38°59' W 075°06'2 4.5
2017-Sep-12 22:30N 38°58' W 075°04'2 4.4
2017-Sep-12 21:58N 38°57' W 075°01'2 3.7
2017-Sep-12 21:30N 38°56' W 074°59'32 4.6
2017-Sep-12 14:28N 39°13' W 074°24'3 5.4
2017-Sep-12 13:56N 39°15' W 074°21'  
2017-Sep-09 19:02N 43°37' W 069°25'0 5.6
2017-Sep-09 18:58N 43°38' W 069°25'3 5.5
2017-Sep-09 18:30N 43°40' W 069°24'3 5.5
2017-Sep-09 18:00N 43°43' W 069°23'3 5.5
2017-Sep-09 17:30N 43°45' W 069°21'3 5.3
2017-Sep-09 17:00N 43°48' W 069°20'3 5.4
2017-Sep-09 16:30N 43°50' W 069°18'3 5.5
2017-Sep-09 16:00N 43°52' W 069°15'3 5.4
2017-Sep-09 15:30N 43°54' W 069°13'3 5.5
2017-Sep-09 15:00N 43°56' W 069°10'3 5.5
2017-Sep-09 14:30N 43°58' W 069°08'2 4.3
2017-Sep-09 14:00N 43°60' W 069°06'2 4.5
2017-Sep-09 13:30N 44°02' W 069°04'2 4.9
2017-Sep-09 13:00N 44°04' W 069°03'2 3.6
2017-Sep-09 12:30N 44°06' W 069°03'2 3.0
2017-Sep-09 11:55N 44°06' W 069°06'  
Track history (hours):
 
Tides and Currents Weather Stations Pressure Air Temp Water Temp Dewpoint Dewpoint Depression Visibility Wind Speed Wind Dir Waves Ship Positions

Tanamera

Last reported at 2017-Sep-13 13:19 UTC. Time now 2017-Sep-19 18:48 UTC.
Position N 39°20' W 076°11'.

Length 10 m.

Type: Sailing vessel. MMSI: 211598890.

Date/timePositionNaut miles runAvg speedWind from/ knotsBaromVisibWave heightAir tempDewpointWater temp
2017-Sep-13 13:19N 39°20' W 076°11'3 6.3
2017-Sep-13 12:54N 39°22' W 076°09'2 6.3
2017-Sep-13 12:31N 39°23' W 076°06'3 6.4
2017-Sep-13 12:00N 39°25' W 076°02'3 6.5
2017-Sep-13 11:31N 39°27' W 075°60'3 6.4
2017-Sep-13 11:01N 39°29' W 075°57'3 6.2
2017-Sep-13 10:29N 39°31' W 075°53'3 6.0
2017-Sep-13 10:01N 39°32' W 075°50'3 5.6
2017-Sep-13 09:31N 39°32' W 075°46'3 5.2
2017-Sep-13 09:01N 39°33' W 075°43'2 4.7
2017-Sep-13 08:30N 39°33' W 075°40'2 4.4
2017-Sep-13 08:00N 39°33' W 075°37'2 4.1
2017-Sep-13 07:30N 39°34' W 075°34'2 4.8
2017-Sep-13 07:01N 39°31' W 075°33'3 6.5
2017-Sep-13 06:30N 39°28' W 075°33'3 6.3
2017-Sep-13 06:00N 39°25' W 075°31'3 5.7
2017-Sep-13 05:31N 39°23' W 075°29'3 5.4
2017-Sep-13 05:00N 39°21' W 075°26'3 5.2
2017-Sep-13 04:31N 39°19' W 075°24'3 5.1
2017-Sep-13 04:01N 39°17' W 075°22'2 4.9
2017-Sep-13 03:31N 39°16' W 075°20'2 4.3
2017-Sep-13 02:59N 39°14' W 075°18'2 3.8
2017-Sep-13 02:31N 39°12' W 075°17'2 3.6
2017-Sep-13 02:01N 39°11' W 075°16'2 4.4
2017-Sep-13 01:30N 39°09' W 075°14'2 4.8
2017-Sep-13 01:00N 39°07' W 075°12'2 4.5
2017-Sep-13 00:31N 39°05' W 075°11'2 4.3
2017-Sep-13 00:00N 39°03' W 075°09'2 4.4
2017-Sep-12 23:29N 39°01' W 075°07'2 4.2
2017-Sep-12 22:56N 38°59' W 075°06'2 4.5
2017-Sep-12 22:30N 38°58' W 075°04'2 4.4
2017-Sep-12 21:58N 38°57' W 075°01'2 3.7
2017-Sep-12 21:30N 38°56' W 074°59'32 4.6
2017-Sep-12 14:28N 39°13' W 074°24'3 5.4
2017-Sep-12 13:56N 39°15' W 074°21'  
2017-Sep-09 19:02N 43°37' W 069°25'0 5.6
2017-Sep-09 18:58N 43°38' W 069°25'3 5.5
2017-Sep-09 18:30N 43°40' W 069°24'3 5.5
2017-Sep-09 18:00N 43°43' W 069°23'3 5.5
2017-Sep-09 17:30N 43°45' W 069°21'3 5.3
2017-Sep-09 17:00N 43°48' W 069°20'3 5.4
2017-Sep-09 16:30N 43°50' W 069°18'3 5.5
2017-Sep-09 16:00N 43°52' W 069°15'3 5.4
2017-Sep-09 15:30N 43°54' W 069°13'3 5.5
2017-Sep-09 15:00N 43°56' W 069°10'3 5.5
2017-Sep-09 14:30N 43°58' W 069°08'2 4.3
2017-Sep-09 14:00N 43°60' W 069°06'2 4.5
2017-Sep-09 13:30N 44°02' W 069°04'2 4.9
2017-Sep-09 13:00N 44°04' W 069°03'2 3.6
2017-Sep-09 12:30N 44°06' W 069°03'2 3.0
2017-Sep-09 11:55N 44°06' W 069°06'  

Dump ship's entire track history